createdAt,value
2022-10-08T00:00:00.263Z,12.8
2022-10-08T00:05:00.238Z,12.9
2022-10-08T00:10:00.183Z,12.9
2022-10-08T00:15:00.210Z,13.0
2022-10-08T00:20:00.226Z,13.1
2022-10-08T00:25:00.325Z,13.1
2022-10-08T00:30:00.220Z,13.1
2022-10-08T00:35:00.227Z,13.1
2022-10-08T00:40:00.228Z,13.0
2022-10-08T00:45:00.221Z,12.9
2022-10-08T00:50:00.218Z,13.0
2022-10-08T00:55:00.214Z,13.0
2022-10-08T01:00:00.235Z,13.0
2022-10-08T01:05:00.176Z,12.9
2022-10-08T01:10:00.216Z,12.6
2022-10-08T01:15:00.183Z,12.4
2022-10-08T01:20:00.203Z,12.3
2022-10-08T01:25:00.221Z,12.2
2022-10-08T01:30:00.198Z,12.2
2022-10-08T01:35:00.188Z,12.1
2022-10-08T01:40:00.216Z,12.1
2022-10-08T01:45:00.210Z,12.0
2022-10-08T01:50:00.192Z,12.0
2022-10-08T01:55:00.201Z,11.9
2022-10-08T02:00:00.231Z,11.9
2022-10-08T02:05:00.211Z,11.8
2022-10-08T02:10:00.207Z,11.9
2022-10-08T02:15:00.192Z,11.9
2022-10-08T02:20:00.182Z,11.9
2022-10-08T02:25:00.198Z,11.9
2022-10-08T02:30:00.185Z,11.9
2022-10-08T02:35:00.211Z,11.9
2022-10-08T02:40:00.197Z,11.9
2022-10-08T02:45:00.190Z,11.9
2022-10-08T02:50:00.204Z,11.9
2022-10-08T02:55:00.215Z,11.8
2022-10-08T03:00:01.603Z,11.8
2022-10-08T03:05:00.202Z,11.8
2022-10-08T03:10:00.230Z,11.8
2022-10-08T03:15:00.192Z,11.8
2022-10-08T03:20:00.226Z,11.7
2022-10-08T03:25:00.196Z,11.7
2022-10-08T03:30:00.198Z,11.6
2022-10-08T03:35:00.210Z,11.5
2022-10-08T03:40:00.200Z,11.5
2022-10-08T03:45:00.174Z,11.6
2022-10-08T03:50:00.212Z,11.5
2022-10-08T03:55:00.195Z,11.6
2022-10-08T04:00:00.250Z,11.7
2022-10-08T04:05:00.200Z,11.8
2022-10-08T04:10:00.207Z,11.8
2022-10-08T04:15:00.198Z,11.9
2022-10-08T04:20:00.207Z,11.8
2022-10-08T04:25:00.196Z,11.9
2022-10-08T04:30:00.240Z,11.9
2022-10-08T04:35:00.190Z,11.9
2022-10-08T04:40:00.220Z,11.9
2022-10-08T04:45:00.201Z,11.9
2022-10-08T04:50:00.206Z,11.9
2022-10-08T04:55:00.202Z,11.8
2022-10-08T05:00:17.595Z,11.7
2022-10-08T05:05:00.183Z,11.7
2022-10-08T05:10:00.192Z,11.6
2022-10-08T05:15:00.191Z,11.4
2022-10-08T05:20:00.191Z,11.3
2022-10-08T05:25:00.190Z,11.3
2022-10-08T05:30:00.203Z,11.2
2022-10-08T05:35:00.171Z,11.1
2022-10-08T05:40:00.211Z,11.1
2022-10-08T05:45:00.186Z,11.0
2022-10-08T05:50:00.191Z,11.0
2022-10-08T05:55:00.201Z,10.8
2022-10-08T06:00:00.225Z,10.9
2022-10-08T06:05:00.293Z,10.8
2022-10-08T06:10:00.175Z,10.8
2022-10-08T06:15:00.199Z,10.7
2022-10-08T06:20:00.192Z,10.8
2022-10-08T06:25:00.197Z,10.8
2022-10-08T06:30:00.190Z,10.9
2022-10-08T06:35:00.214Z,10.9
2022-10-08T06:40:01.225Z,11.1
2022-10-08T06:45:02.367Z,11.2
2022-10-08T06:50:00.273Z,11.2
2022-10-08T06:55:00.191Z,11.3
2022-10-08T07:00:00.282Z,11.6
2022-10-08T07:05:00.192Z,11.9
2022-10-08T07:10:00.402Z,12.2
2022-10-08T07:15:00.297Z,12.4
2022-10-08T07:20:00.323Z,12.5
2022-10-08T07:25:00.208Z,12.6
2022-10-08T07:30:00.200Z,12.6
2022-10-08T07:35:00.338Z,13.3
2022-10-08T07:40:00.455Z,13.3
2022-10-08T07:45:00.204Z,13.4
2022-10-08T07:50:00.214Z,13.4
2022-10-08T07:55:00.207Z,13.7
2022-10-08T08:00:00.240Z,13.8
2022-10-08T08:05:00.196Z,13.7
2022-10-08T08:10:00.212Z,14.1
2022-10-08T08:15:00.194Z,14.2
2022-10-08T08:20:00.235Z,14.0
2022-10-08T08:25:00.195Z,13.3
2022-10-08T08:30:00.208Z,13.7
2022-10-08T08:35:00.199Z,13.9
2022-10-08T08:40:00.199Z,14.1
2022-10-08T08:45:00.216Z,14.6
2022-10-08T08:50:00.214Z,14.8
2022-10-08T08:55:00.189Z,15.0
2022-10-08T09:00:00.246Z,15.0
2022-10-08T09:05:00.299Z,14.9
2022-10-08T09:10:00.236Z,15.0
2022-10-08T09:15:00.211Z,15.0
2022-10-08T09:20:00.189Z,15.2
2022-10-08T09:25:00.219Z,15.1
2022-10-08T09:30:00.211Z,14.8
2022-10-08T09:35:00.218Z,15.0
2022-10-08T09:40:00.252Z,15.2
2022-10-08T09:45:00.303Z,15.4
2022-10-08T09:50:00.241Z,15.2
2022-10-08T09:55:00.260Z,15.6
2022-10-08T10:00:00.266Z,15.2
2022-10-08T10:05:00.274Z,15.0
2022-10-08T10:10:00.209Z,15.4
2022-10-08T10:15:00.298Z,15.5
2022-10-08T10:20:00.208Z,16.1
2022-10-08T10:25:00.245Z,15.5
2022-10-08T10:30:00.230Z,15.0
2022-10-08T10:35:00.242Z,15.4
2022-10-08T10:40:00.219Z,15.5
2022-10-08T10:45:00.232Z,16.1
2022-10-08T10:50:00.249Z,15.9
2022-10-08T10:55:00.226Z,16.1
2022-10-08T11:00:00.326Z,16.6
2022-10-08T11:05:01.938Z,16.8
2022-10-08T11:10:00.212Z,16.2
2022-10-08T11:15:00.218Z,15.7
2022-10-08T11:20:00.263Z,14.7
2022-10-08T11:25:00.222Z,14.3
2022-10-08T11:30:00.232Z,14.2
2022-10-08T11:35:00.205Z,15.2
2022-10-08T11:40:00.253Z,16.0
2022-10-08T11:45:00.224Z,16.6
2022-10-08T11:50:00.258Z,15.7
2022-10-08T11:55:00.226Z,15.1
2022-10-08T12:00:04.395Z,15.5
2022-10-08T12:05:00.234Z,16.0
2022-10-08T12:10:00.230Z,16.5
2022-10-08T12:15:00.237Z,16.4
2022-10-08T12:20:00.248Z,16.4
2022-10-08T12:25:00.246Z,16.2
2022-10-08T12:30:00.228Z,16.7
2022-10-08T12:35:00.252Z,16.7
2022-10-08T12:40:00.248Z,15.6
2022-10-08T12:45:00.201Z,15.4
2022-10-08T12:50:00.217Z,15.9
2022-10-08T12:55:00.236Z,16.6
2022-10-08T13:00:00.796Z,16.6
2022-10-08T13:05:00.209Z,16.9
2022-10-08T13:10:00.213Z,17.1
2022-10-08T13:15:00.273Z,17.1
2022-10-08T13:20:00.253Z,17.1
2022-10-08T13:25:00.182Z,17.2
2022-10-08T13:30:00.237Z,17.1
2022-10-08T13:35:00.332Z,16.6
2022-10-08T13:40:00.194Z,15.7
2022-10-08T13:45:00.270Z,15.5
2022-10-08T13:50:00.292Z,15.3
2022-10-08T13:55:00.222Z,15.6
2022-10-08T14:00:00.256Z,16.3
2022-10-08T14:05:00.218Z,16.7
2022-10-08T14:10:00.212Z,16.6
2022-10-08T14:15:00.214Z,16.9
2022-10-08T14:20:00.211Z,17.3
2022-10-08T14:25:00.219Z,16.8
2022-10-08T14:30:00.241Z,17.2
2022-10-08T14:35:00.212Z,17.1
2022-10-08T14:40:00.259Z,16.9
2022-10-08T14:45:00.207Z,17.2
2022-10-08T14:50:00.221Z,16.5
2022-10-08T14:55:00.232Z,15.6
2022-10-08T15:00:00.363Z,15.3
2022-10-08T15:05:00.179Z,15.0
2022-10-08T15:10:00.195Z,14.9
2022-10-08T15:15:00.249Z,15.1
2022-10-08T15:20:00.208Z,15.1
2022-10-08T15:25:00.220Z,15.3
2022-10-08T15:30:00.261Z,15.2
2022-10-08T15:35:00.209Z,15.1
2022-10-08T15:40:00.242Z,15.0
2022-10-08T15:45:00.218Z,15.1
2022-10-08T15:50:00.301Z,15.1
2022-10-08T15:55:00.238Z,14.9
2022-10-08T16:00:00.271Z,14.8
2022-10-08T16:05:00.208Z,14.6
2022-10-08T16:10:00.199Z,14.5
2022-10-08T16:15:00.249Z,14.3
2022-10-08T16:20:00.227Z,14.2
2022-10-08T16:25:00.200Z,14.1
2022-10-08T16:30:00.235Z,14.0
2022-10-08T16:35:00.203Z,13.8
2022-10-08T16:40:00.299Z,13.7
2022-10-08T16:45:00.208Z,13.6
2022-10-08T16:50:00.299Z,13.5
2022-10-08T16:55:00.195Z,13.3
2022-10-08T17:00:00.453Z,13.3
2022-10-08T17:05:00.213Z,13.2
2022-10-08T17:10:00.252Z,13.1
2022-10-08T17:15:00.286Z,12.8
2022-10-08T17:20:00.266Z,12.5
2022-10-08T17:25:00.200Z,12.4
2022-10-08T17:30:00.266Z,12.1
2022-10-08T17:35:02.467Z,11.8
2022-10-08T17:40:00.238Z,11.5
2022-10-08T17:45:00.229Z,11.6
2022-10-08T17:50:00.218Z,11.6
2022-10-08T17:55:00.217Z,11.5
2022-10-08T18:00:00.244Z,11.4
2022-10-08T18:05:00.233Z,11.3
2022-10-08T18:10:00.213Z,11.3
2022-10-08T18:15:00.238Z,11.2
2022-10-08T18:20:00.230Z,11.2
2022-10-08T18:25:00.249Z,11.2
2022-10-08T18:30:00.358Z,11.0
2022-10-08T18:35:00.266Z,10.9
2022-10-08T18:40:00.238Z,10.7
2022-10-08T18:45:00.258Z,10.6
2022-10-08T18:50:00.235Z,10.5
2022-10-08T18:55:00.221Z,10.3
2022-10-08T19:00:00.286Z,10.4
2022-10-08T19:05:00.256Z,10.3
2022-10-08T19:10:00.280Z,10.1
2022-10-08T19:15:00.251Z,9.9
2022-10-08T19:20:00.281Z,9.8
2022-10-08T19:25:00.239Z,9.8
2022-10-08T19:30:00.250Z,9.8
2022-10-08T19:35:00.239Z,9.8
2022-10-08T19:40:00.244Z,9.7
2022-10-08T19:45:00.231Z,9.7
2022-10-08T19:50:00.246Z,9.5
2022-10-08T19:55:00.227Z,9.5
2022-10-08T20:00:00.290Z,9.5
2022-10-08T20:05:00.240Z,9.5
2022-10-08T20:10:00.217Z,9.4
2022-10-08T20:15:00.201Z,9.4
2022-10-08T20:20:15.357Z,9.4
2022-10-08T20:25:00.210Z,9.4
2022-10-08T20:30:00.224Z,9.5
2022-10-08T20:35:00.223Z,9.4
2022-10-08T20:40:00.204Z,9.3
2022-10-08T20:45:00.230Z,9.2
2022-10-08T20:50:00.228Z,9.1
2022-10-08T20:55:00.199Z,9.0
2022-10-08T21:00:00.270Z,9.0
2022-10-08T21:05:00.270Z,8.9
2022-10-08T21:10:00.261Z,8.9
2022-10-08T21:15:00.237Z,9.0
2022-10-08T21:20:00.204Z,9.0
2022-10-08T21:25:00.202Z,8.9
2022-10-08T21:30:00.217Z,8.9
2022-10-08T21:35:00.213Z,8.8
2022-10-08T21:40:00.197Z,8.7
2022-10-08T21:45:00.204Z,8.7
2022-10-08T21:50:00.203Z,8.6
2022-10-08T21:55:00.216Z,8.7
2022-10-08T22:00:00.265Z,8.6
2022-10-08T22:05:00.171Z,8.7
2022-10-08T22:10:00.229Z,8.7
2022-10-08T22:15:00.244Z,8.6
2022-10-08T22:20:00.230Z,8.4
2022-10-08T22:25:00.241Z,8.3
2022-10-08T22:30:00.247Z,8.3
2022-10-08T22:35:00.219Z,8.2
2022-10-08T22:40:00.206Z,8.3
2022-10-08T22:45:00.217Z,8.2
2022-10-08T22:50:00.229Z,8.2
2022-10-08T22:55:00.208Z,8.1
2022-10-08T23:00:00.250Z,8.2
2022-10-08T23:05:00.228Z,8.2
2022-10-08T23:10:00.224Z,8.3
2022-10-08T23:15:00.235Z,8.3
2022-10-08T23:20:00.284Z,8.2
2022-10-08T23:25:00.198Z,8.1
2022-10-08T23:30:00.254Z,8.0
2022-10-08T23:35:00.230Z,7.9
2022-10-08T23:40:00.201Z,7.9
2022-10-08T23:45:00.219Z,7.8
2022-10-08T23:50:00.243Z,7.7
2022-10-08T23:55:00.234Z,7.6
